Time;durP1;ratioP1;P1;durP2;ratioP2;P2;SDS_P1;SDS_P2;PMS_P1;PMS_P2;Temp;Humidity;BMP_temperature;BMP_pressure;BME280_temperature;BME280_humidity;BME280_pressure;Samples;Min_cycle;Max_cycle;Signal;HPM_P1;HPM_P2
2021/06/23 00:02:15;;;;;;;4.75;1.25;;;13.00;99.90;;;;;;5075486;28;20377;-86
2021/06/23 00:04:43;;;;;;;3.40;1.10;;;13.10;99.90;;;;;;5069599;28;20425;-90
2021/06/23 00:07:10;;;;;;;1.73;1.10;;;13.10;99.90;;;;;;5062436;28;20739;-86
2021/06/23 00:09:37;;;;;;;1.83;1.00;;;13.20;99.90;;;;;;5079258;28;20468;-90
2021/06/23 00:12:05;;;;;;;1.37;1.00;;;13.40;99.90;;;;;;5071855;28;20380;-94
2021/06/23 00:14:32;;;;;;;2.42;0.93;;;13.40;99.90;;;;;;5077573;28;20434;-85
2021/06/23 00:16:59;;;;;;;1.67;0.70;;;13.60;99.90;;;;;;5090370;28;20486;-86
2021/06/23 00:19:26;;;;;;;2.00;1.05;;;13.70;99.90;;;;;;5090036;28;20383;-86
2021/06/23 00:21:53;;;;;;;2.20;0.80;;;14.20;99.90;;;;;;5065185;28;20392;-88
2021/06/23 00:24:20;;;;;;;2.30;0.97;;;14.70;99.90;;;;;;5049460;28;20438;-85
2021/06/23 00:26:47;;;;;;;1.45;0.60;;;14.90;99.90;;;;;;5049708;28;20426;-87
2021/06/23 00:29:14;;;;;;;1.80;0.70;;;14.90;99.90;;;;;;5049689;28;20403;-86
2021/06/23 00:31:41;;;;;;;3.80;0.88;;;14.90;99.90;;;;;;5050300;28;20392;-86
2021/06/23 00:34:11;;;;;;;1.88;0.70;;;14.80;99.90;;;;;;5049400;28;20359;-88
2021/06/23 00:36:39;;;;;;;1.35;0.50;;;14.80;99.90;;;;;;5049793;28;20378;-87
2021/06/23 00:39:06;;;;;;;1.00;0.40;;;14.80;99.90;;;;;;5049973;28;20367;-92
2021/06/23 00:41:35;;;;;;;1.08;0.40;;;14.90;99.90;;;;;;5055788;28;20403;-89
2021/06/23 00:44:02;;;;;;;1.42;0.63;;;14.90;99.90;;;;;;5060509;28;20407;-86
2021/06/23 00:46:29;;;;;;;2.78;0.50;;;15.00;99.90;;;;;;5048895;28;20447;-87
2021/06/23 00:48:58;;;;;;;3.30;0.70;;;14.90;99.90;;;;;;5056556;28;20392;-89
2021/06/23 00:51:26;;;;;;;1.50;0.63;;;15.00;99.90;;;;;;5089889;28;20408;-93
2021/06/23 00:53:59;;;;;;;0.70;0.30;;;15.00;99.90;;;;;;5091738;28;20381;-90
2021/06/23 00:56:34;;;;;;;2.60;0.40;;;15.00;99.90;;;;;;5089820;28;20385;-89
2021/06/23 00:59:02;;;;;;;1.88;0.35;;;14.90;99.90;;;;;;5077381;28;20367;-92
2021/06/23 01:01:32;;;;;;;1.50;0.40;;;14.90;99.90;;;;;;5071167;28;20386;-90
2021/06/23 01:04:00;;;;;;;1.20;0.63;;;15.00;99.90;;;;;;5069675;28;20370;-87
2021/06/23 01:06:28;;;;;;;1.05;0.55;;;14.90;99.90;;;;;;5069377;28;20460;-93
2021/06/23 01:08:56;;;;;;;1.77;0.73;;;14.80;99.90;;;;;;5070845;28;20559;-88
2021/06/23 01:11:23;;;;;;;1.67;0.60;;;14.90;99.90;;;;;;5068922;28;20381;-89
2021/06/23 01:13:50;;;;;;;1.63;0.40;;;15.00;99.90;;;;;;5069100;28;20368;-88
2021/06/23 01:16:19;;;;;;;1.27;0.40;;;15.20;99.90;;;;;;5068928;28;20386;-91
2021/06/23 01:18:47;;;;;;;1.80;0.30;;;15.40;99.90;;;;;;5069573;28;20852;-88
2021/06/23 01:21:14;;;;;;;1.92;0.30;;;15.50;99.90;;;;;;5069104;28;20410;-88
2021/06/23 01:23:41;;;;;;;0.70;0.25;;;15.50;99.90;;;;;;5053879;28;20367;-93
2021/06/23 01:26:08;;;;;;;0.60;0.30;;;15.50;99.90;;;;;;5049047;28;20391;-91
2021/06/23 01:28:35;;;;;;;1.40;0.30;;;15.50;99.90;;;;;;5049743;28;20859;-88
2021/06/23 01:31:03;;;;;;;0.75;0.28;;;15.60;99.90;;;;;;5050638;28;20388;-89
2021/06/23 01:33:30;;;;;;;0.60;0.30;;;15.60;99.90;;;;;;5053281;28;20382;-89
2021/06/23 01:35:58;;;;;;;0.40;0.40;;;15.60;99.90;;;;;;5052564;28;20388;-90
2021/06/23 01:38:25;;;;;;;1.20;0.30;;;15.60;99.90;;;;;;5053305;28;20396;-90
2021/06/23 01:40:53;;;;;;;1.50;0.50;;;15.60;99.90;;;;;;5052930;28;20403;-88
2021/06/23 01:43:20;;;;;;;1.10;0.40;;;15.60;99.90;;;;;;5065474;28;20401;-90
2021/06/23 01:45:49;;;;;;;0.80;0.25;;;15.70;99.90;;;;;;5072669;28;20393;-88
2021/06/23 01:48:24;;;;;;;0.65;0.40;;;15.80;99.90;;;;;;5074042;28;20377;-88
2021/06/23 01:51:02;;;;;;;0.82;0.30;;;15.80;99.90;;;;;;5070681;28;20429;-88
2021/06/23 01:53:33;;;;;;;0.80;0.40;;;15.80;99.90;;;;;;5057302;28;20458;-89
2021/06/23 01:56:01;;;;;;;1.33;0.40;;;15.80;99.90;;;;;;5062397;28;20410;-88
2021/06/23 01:58:28;;;;;;;4.88;0.70;;;15.90;99.90;;;;;;5063309;28;20879;-93
2021/06/23 02:01:16;;;;;;;1.45;0.50;;;16.00;99.90;;;;;;5071936;28;20393;-88
2021/06/23 02:03:52;;;;;;;0.82;0.50;;;15.90;99.90;;;;;;5060343;28;20518;-88
2021/06/23 02:06:50;;;;;;;0.75;0.47;;;15.90;99.90;;;;;;5053967;28;20395;-86
2021/06/23 02:09:17;;;;;;;0.80;0.40;;;15.90;99.90;;;;;;5053654;28;20504;-88
2021/06/23 02:11:47;;;;;;;1.13;0.30;;;16.10;99.90;;;;;;5057182;28;20788;-91
2021/06/23 02:14:36;;;;;;;0.90;0.40;;;16.20;99.90;;;;;;5053466;28;20723;-90
2021/06/23 02:17:09;;;;;;;0.80;0.35;;;16.20;99.90;;;;;;5052824;28;20830;-88
2021/06/23 02:19:44;;;;;;;0.77;0.30;;;16.30;99.90;;;;;;5052710;28;20724;-87
2021/06/23 02:22:21;;;;;;;1.00;0.22;;;16.40;99.90;;;;;;5054059;28;20739;-88
2021/06/23 02:24:51;;;;;;;1.00;0.38;;;16.40;99.90;;;;;;5052640;28;20391;-90
2021/06/23 02:27:19;;;;;;;0.95;0.50;;;16.40;99.90;;;;;;5064411;28;20381;-93
2021/06/23 02:29:47;;;;;;;1.30;0.50;;;16.40;99.90;;;;;;5063851;28;20502;-90
2021/06/23 02:32:22;;;;;;;1.55;0.40;;;16.40;99.90;;;;;;5065209;28;20718;-94
2021/06/23 02:34:54;;;;;;;1.77;0.50;;;16.30;99.90;;;;;;5053751;28;20478;-87
2021/06/23 02:37:23;;;;;;;1.77;0.47;;;16.30;99.90;;;;;;5063677;28;20760;-91
2021/06/23 02:39:50;;;;;;;1.60;0.30;;;16.40;99.90;;;;;;5065631;28;20833;-91
2021/06/23 02:42:18;;;;;;;0.65;0.30;;;16.40;99.90;;;;;;5085782;28;20433;-93
2021/06/23 02:44:45;;;;;;;0.75;0.30;;;16.40;99.90;;;;;;5077818;28;20861;-90
2021/06/23 02:47:16;;;;;;;1.50;0.40;;;16.40;99.90;;;;;;5073303;28;20448;-86
2021/06/23 02:49:44;;;;;;;0.85;0.45;;;16.50;99.90;;;;;;5073086;28;20408;-87
2021/06/23 02:52:13;;;;;;;1.02;0.30;;;16.40;99.90;;;;;;5072045;28;20370;-89
2021/06/23 02:54:41;;;;;;;0.57;0.30;;;16.30;99.90;;;;;;5081437;28;20390;-92
2021/06/23 02:57:09;;;;;;;0.95;0.40;;;16.30;99.90;;;;;;5056915;28;20475;-91
2021/06/23 02:59:37;;;;;;;0.47;0.30;;;16.20;99.90;;;;;;5071819;28;20392;-89
2021/06/23 03:02:05;;;;;;;1.50;0.30;;;16.30;99.90;;;;;;5079306;28;20732;-90
2021/06/23 03:04:32;;;;;;;0.45;0.40;;;16.30;99.90;;;;;;5060408;28;20400;-91
2021/06/23 03:07:12;;;;;;;0.30;0.30;;;16.20;99.90;;;;;;5070204;28;20386;-88
2021/06/23 03:09:42;;;;;;;1.10;0.30;;;16.20;99.90;;;;;;5053462;28;20850;-92
2021/06/23 03:12:17;;;;;;;0.50;0.20;;;16.10;99.90;;;;;;5056025;28;20380;-88
2021/06/23 03:14:44;;;;;;;1.48;0.20;;;16.10;99.90;;;;;;5059899;28;20399;-90
2021/06/23 03:17:11;;;;;;;0.70;0.20;;;16.00;99.90;;;;;;5077020;28;20366;-90
2021/06/23 03:19:38;;;;;;;0.77;0.20;;;16.00;99.90;;;;;;5076300;28;20432;-88
2021/06/23 03:22:08;;;;;;;0.70;0.13;;;15.90;99.90;;;;;;5071716;28;20382;-93
2021/06/23 03:24:39;;;;;;;0.57;0.30;;;15.90;99.90;;;;;;5069525;28;20928;-88
2021/06/23 03:27:07;;;;;;;0.45;0.10;;;15.90;99.90;;;;;;5072328;28;20511;-93
2021/06/23 03:29:35;;;;;;;1.02;0.20;;;15.90;99.90;;;;;;5069613;28;20404;-94
2021/06/23 03:32:06;;;;;;;0.20;0.20;;;16.00;99.90;;;;;;5054614;28;20448;-95
2021/06/23 03:34:33;;;;;;;0.70;0.20;;;16.10;99.90;;;;;;5052185;28;20442;-90
2021/06/23 03:37:00;;;;;;;2.07;0.20;;;16.10;99.90;;;;;;5051137;28;20375;-88
2021/06/23 03:39:27;;;;;;;0.50;0.25;;;16.10;99.90;;;;;;5050920;28;20376;-89
2021/06/23 03:41:54;;;;;;;0.98;0.30;;;16.00;99.90;;;;;;5054919;28;20393;-89
2021/06/23 03:44:21;;;;;;;0.57;0.43;;;16.00;99.90;;;;;;5061742;28;20387;-85
2021/06/23 03:46:48;;;;;;;1.10;0.30;;;15.80;99.90;;;;;;5051177;28;20372;-87
2021/06/23 03:49:15;;;;;;;1.00;0.30;;;15.70;99.90;;;;;;5063763;28;20480;-90
2021/06/23 03:51:42;;;;;;;1.00;0.40;;;15.70;99.90;;;;;;5050927;28;20388;-91
2021/06/23 03:54:09;;;;;;;1.80;0.40;;;15.60;99.90;;;;;;5051527;28;20406;-89
2021/06/23 03:56:36;;;;;;;0.43;0.30;;;15.60;99.90;;;;;;5061032;28;20478;-89
2021/06/23 03:59:03;;;;;;;0.80;0.30;;;15.50;99.90;;;;;;5071340;28;20455;-90
2021/06/23 04:01:30;;;;;;;4.17;0.30;;;15.50;99.90;;;;;;5064063;28;20408;-91
2021/06/23 04:03:57;;;;;;;1.20;0.20;;;15.60;99.90;;;;;;5051912;28;20835;-90
2021/06/23 04:06:24;;;;;;;0.25;0.20;;;15.70;99.90;;;;;;5063610;28;20378;-88
2021/06/23 04:08:51;;;;;;;0.40;0.30;;;15.80;99.90;;;;;;5070962;28;20865;-87
2021/06/23 04:11:18;;;;;;;0.60;0.20;;;15.80;99.90;;;;;;5074468;28;20460;-88
2021/06/23 04:13:45;;;;;;;0.90;0.20;;;15.80;99.90;;;;;;5071177;28;20424;-88
2021/06/23 04:16:13;;;;;;;1.00;0.20;;;15.80;99.90;;;;;;5072191;28;20435;-89
2021/06/23 04:18:39;;;;;;;1.40;0.10;;;15.80;99.90;;;;;;5060589;28;20376;-86
2021/06/23 04:21:07;;;;;;;0.20;0.20;;;15.70;99.90;;;;;;5051372;28;20438;-88
2021/06/23 04:23:34;;;;;;;0.93;0.20;;;15.60;99.90;;;;;;5051486;28;20379;-90
2021/06/23 04:26:01;;;;;;;0.50;0.20;;;15.70;99.90;;;;;;5066429;28;20381;-90
2021/06/23 04:28:28;;;;;;;1.30;0.30;;;15.80;99.90;;;;;;5070864;28;20405;-87
2021/06/23 04:30:57;;;;;;;1.90;0.30;;;15.80;99.90;;;;;;5059754;28;20411;-89
2021/06/23 04:33:24;;;;;;;1.52;0.25;;;15.80;99.90;;;;;;5051572;28;20459;-90
2021/06/23 04:35:51;;;;;;;0.40;0.30;;;15.80;99.90;;;;;;5051070;28;20376;-86
2021/06/23 04:38:18;;;;;;;0.40;0.20;;;15.70;99.90;;;;;;5070056;28;20423;-87
2021/06/23 04:40:45;;;;;;;0.65;0.30;;;15.70;99.90;;;;;;5069907;28;20496;-87
2021/06/23 04:43:12;;;;;;;0.88;0.40;;;15.60;99.90;;;;;;5069583;28;20424;-92
2021/06/23 04:45:39;;;;;;;0.25;0.20;;;15.60;99.90;;;;;;5071782;28;20371;-94
2021/06/23 04:48:07;;;;;;;0.57;0.20;;;15.50;99.90;;;;;;5081563;28;20855;-86
2021/06/23 04:50:35;;;;;;;0.38;0.35;;;15.50;99.90;;;;;;5089491;28;20835;-88
2021/06/23 04:53:02;;;;;;;1.00;0.30;;;15.40;99.90;;;;;;5089655;28;20473;-85
2021/06/23 04:55:29;;;;;;;1.60;0.22;;;15.40;99.90;;;;;;5072224;28;20386;-86
2021/06/23 04:57:56;;;;;;;0.40;0.30;;;15.40;99.90;;;;;;5059615;28;20387;-87
2021/06/23 05:00:23;;;;;;;0.70;0.40;;;15.50;99.90;;;;;;5049310;28;20372;-86
2021/06/23 05:02:50;;;;;;;0.45;0.20;;;15.50;99.90;;;;;;5053737;28;20390;-85
2021/06/23 05:05:17;;;;;;;1.13;1.00;;;15.60;99.90;;;;;;5052999;28;20486;-86
2021/06/23 05:07:44;;;;;;;0.40;0.20;;;15.60;99.90;;;;;;5048920;28;20411;-85
2021/06/23 05:10:12;;;;;;;0.40;0.30;;;15.50;99.90;;;;;;5049341;28;20757;-86
2021/06/23 05:12:39;;;;;;;1.02;0.30;;;15.50;99.90;;;;;;5054070;28;20380;-84
2021/06/23 05:15:06;;;;;;;0.80;0.50;;;15.50;99.90;;;;;;5050370;28;20478;-86
2021/06/23 05:17:33;;;;;;;0.57;0.40;;;15.50;99.90;;;;;;5049178;28;20399;-86
2021/06/23 05:20:01;;;;;;;1.20;0.82;;;15.30;99.90;;;;;;5047550;28;20391;-85
2021/06/23 05:22:28;;;;;;;0.65;0.63;;;15.20;99.90;;;;;;5074914;28;20369;-87
2021/06/23 05:24:56;;;;;;;0.85;0.60;;;15.10;99.90;;;;;;5066329;28;20384;-85
2021/06/23 05:27:23;;;;;;;0.68;0.57;;;15.00;99.90;;;;;;5056231;28;20417;-86
2021/06/23 05:29:50;;;;;;;1.70;0.45;;;14.90;99.90;;;;;;5050181;28;20408;-92
2021/06/23 05:32:17;;;;;;;2.85;0.43;;;14.90;99.90;;;;;;5069669;28;20781;-86
2021/06/23 05:34:44;;;;;;;1.00;0.40;;;14.90;99.90;;;;;;5066079;28;20396;-87
2021/06/23 05:37:11;;;;;;;0.75;0.20;;;15.00;99.90;;;;;;5054947;28;20378;-86
2021/06/23 05:39:38;;;;;;;1.23;0.55;;;15.00;99.90;;;;;;5055846;28;20919;-87
2021/06/23 05:42:05;;;;;;;4.20;0.60;;;14.90;99.90;;;;;;5067561;28;20455;-86
2021/06/23 05:44:32;;;;;;;1.98;0.30;;;14.90;99.90;;;;;;5059097;28;20973;-87
2021/06/23 05:46:59;;;;;;;2.40;0.70;;;14.90;99.90;;;;;;5048653;28;20406;-88
2021/06/23 05:49:26;;;;;;;3.70;1.70;;;14.80;99.90;;;;;;5047273;28;20404;-86
2021/06/23 05:51:53;;;;;;;3.55;1.20;;;14.80;99.90;;;;;;5048424;28;20416;-87
2021/06/23 05:54:20;;;;;;;2.10;0.98;;;14.80;99.90;;;;;;5052244;28;20902;-87
2021/06/23 05:56:48;;;;;;;1.98;0.88;;;14.70;99.90;;;;;;5060535;28;20969;-86
2021/06/23 05:59:15;;;;;;;2.63;0.50;;;14.70;99.90;;;;;;5048274;28;20386;-87
2021/06/23 06:01:42;;;;;;;1.00;0.50;;;14.60;99.90;;;;;;5061418;28;20388;-85
2021/06/23 06:04:09;;;;;;;3.20;0.50;;;14.50;99.90;;;;;;5049637;28;20392;-87
2021/06/23 06:06:36;;;;;;;1.45;0.55;;;14.50;99.90;;;;;;5048348;28;20383;-87
2021/06/23 06:09:03;;;;;;;2.55;0.30;;;14.50;99.90;;;;;;5048288;28;20392;-87
2021/06/23 06:11:30;;;;;;;0.68;0.32;;;14.50;99.90;;;;;;5048011;28;20411;-87
2021/06/23 06:13:57;;;;;;;0.68;0.30;;;14.50;99.90;;;;;;5056160;28;20899;-85
2021/06/23 06:16:24;;;;;;;1.40;0.47;;;14.50;99.90;;;;;;5049565;28;20484;-87
2021/06/23 06:18:51;;;;;;;2.40;0.60;;;14.50;99.90;;;;;;5063325;28;20389;-89
2021/06/23 06:21:18;;;;;;;1.42;0.50;;;14.60;99.90;;;;;;5069117;28;20997;-91
2021/06/23 06:23:45;;;;;;;1.45;0.70;;;14.50;99.90;;;;;;5072197;28;20370;-89
2021/06/23 06:26:12;;;;;;;1.30;0.90;;;14.50;99.90;;;;;;5071849;28;20382;-87
2021/06/23 06:28:39;;;;;;;2.90;1.65;;;14.40;99.90;;;;;;5071992;28;20371;-87
2021/06/23 06:31:06;;;;;;;2.33;1.63;;;14.40;99.90;;;;;;5071282;28;20408;-87
2021/06/23 06:33:34;;;;;;;4.43;2.45;;;14.40;99.90;;;;;;5070935;28;20378;-89
2021/06/23 06:36:02;;;;;;;4.07;2.80;;;14.30;99.90;;;;;;5071487;28;20859;-89
2021/06/23 06:38:32;;;;;;;1.95;1.17;;;14.10;99.90;;;;;;5072946;28;20406;-90
2021/06/23 06:40:59;;;;;;;1.42;1.00;;;14.00;99.90;;;;;;5073021;28;20488;-88
2021/06/23 06:43:26;;;;;;;3.15;2.28;;;13.90;99.90;;;;;;5071835;28;20421;-88
2021/06/23 06:45:53;;;;;;;3.42;2.10;;;13.90;99.90;;;;;;5071706;28;20382;-87
2021/06/23 06:48:21;;;;;;;3.20;1.80;;;13.80;99.90;;;;;;5069331;28;20840;-87
2021/06/23 06:50:49;;;;;;;3.38;1.67;;;13.80;99.90;;;;;;5071421;28;20951;-88
2021/06/23 06:53:16;;;;;;;3.25;1.67;;;13.80;99.90;;;;;;5071508;28;20402;-88
2021/06/23 06:55:43;;;;;;;4.53;1.70;;;13.80;99.90;;;;;;5071887;28;20397;-88
2021/06/23 06:58:11;;;;;;;2.23;1.50;;;13.70;99.90;;;;;;5071309;28;20385;-88
2021/06/23 07:00:38;;;;;;;4.85;3.00;;;13.80;99.90;;;;;;5071436;28;20385;-87
2021/06/23 07:03:05;;;;;;;4.57;2.55;;;13.70;99.90;;;;;;5071279;28;20373;-88
2021/06/23 07:05:32;;;;;;;3.95;2.88;;;13.60;99.90;;;;;;5066098;28;20391;-87
2021/06/23 07:07:59;;;;;;;14.88;11.93;;;13.50;99.90;;;;;;5050655;28;20883;-89
2021/06/23 07:10:26;;;;;;;11.10;8.68;;;13.40;99.90;;;;;;5058312;28;20447;-88
2021/06/23 07:12:53;;;;;;;6.85;4.72;;;13.30;99.90;;;;;;5055515;28;20401;-88
2021/06/23 07:15:21;;;;;;;5.88;3.58;;;13.20;99.90;;;;;;5057075;28;21002;-91
2021/06/23 07:17:51;;;;;;;3.95;2.25;;;13.20;99.90;;;;;;5067167;28;20401;-90
2021/06/23 07:20:19;;;;;;;1.63;1.30;;;13.20;99.90;;;;;;5053534;28;20396;-88
2021/06/23 07:22:47;;;;;;;2.70;2.40;;;13.20;99.90;;;;;;5049503;28;20793;-90
2021/06/23 07:25:14;;;;;;;6.20;4.22;;;13.20;99.90;;;;;;5050346;28;20383;-90
2021/06/23 07:27:42;;;;;;;3.28;2.97;;;13.10;99.90;;;;;;5062132;28;20409;-88
2021/06/23 07:30:09;;;;;;;3.13;2.70;;;13.10;99.90;;;;;;5058236;28;20410;-88
2021/06/23 07:32:55;;;;;;;2.28;1.80;;;13.10;99.90;;;;;;5061936;28;20754;-88
2021/06/23 07:38:09;;;;;;;1.30;1.20;;;13.10;99.90;;;;;;5070370;28;20837;-88
2021/06/23 07:40:44;;;;;;;1.30;0.90;;;13.10;99.90;;;;;;5054049;28;20506;-89
2021/06/23 07:43:12;;;;;;;3.47;1.00;;;13.20;99.90;;;;;;5051908;28;20747;-88
2021/06/23 07:45:45;;;;;;;2.30;1.00;;;13.20;99.90;;;;;;5056145;28;20399;-86
2021/06/23 07:48:12;;;;;;;2.80;1.33;;;13.20;99.90;;;;;;5050353;28;20383;-87
2021/06/23 07:50:46;;;;;;;1.40;1.15;;;13.20;99.90;;;;;;5052660;28;20415;-88
2021/06/23 07:53:23;;;;;;;2.50;1.00;;;13.20;99.90;;;;;;5057172;28;20898;-87
2021/06/23 07:56:07;;;;;;;3.22;0.90;;;13.20;99.90;;;;;;5054387;28;20395;-88
2021/06/23 08:09:45;;;;;;;2.45;1.20;;;13.10;99.90;;;;;;5055315;28;20905;-86
2021/06/23 08:14:40;;;;;;;2.30;1.50;;;13.00;99.90;;;;;;5050015;28;20396;-85
2021/06/23 08:17:07;;;;;;;1.85;1.55;;;13.00;99.90;;;;;;5053389;28;20398;-86
2021/06/23 08:19:34;;;;;;;2.00;1.27;;;12.90;99.90;;;;;;5053861;28;20392;-86
2021/06/23 08:22:01;;;;;;;1.23;1.13;;;13.00;99.90;;;;;;5053317;28;20602;-87
2021/06/23 08:24:29;;;;;;;4.25;1.38;;;13.00;99.90;;;;;;5051260;28;20398;-84
2021/06/23 08:26:56;;;;;;;2.00;1.02;;;13.00;99.90;;;;;;5058504;28;20478;-86
2021/06/23 08:29:23;;;;;;;2.40;1.40;;;13.00;99.90;;;;;;5054170;28;20411;-87
2021/06/23 08:31:50;;;;;;;2.47;1.40;;;13.00;99.90;;;;;;5049481;28;20391;-86
2021/06/23 08:34:17;;;;;;;1.92;1.45;;;13.00;99.90;;;;;;5053600;28;20398;-86
2021/06/23 08:36:44;;;;;;;2.17;1.60;;;13.00;99.90;;;;;;5063135;28;20386;-86
2021/06/23 08:39:11;;;;;;;3.00;1.98;;;13.00;99.90;;;;;;5051225;28;20400;-85
2021/06/23 08:41:38;;;;;;;3.83;1.58;;;13.00;99.90;;;;;;5054058;28;20449;-86
2021/06/23 08:44:06;;;;;;;3.28;2.05;;;13.10;99.90;;;;;;5050785;28;20403;-85
2021/06/23 08:46:32;;;;;;;5.05;2.28;;;13.10;99.90;;;;;;5060642;28;22033;-85
2021/06/23 08:49:01;;;;;;;4.82;2.95;;;13.10;99.90;;;;;;5053130;28;20398;-85
2021/06/23 08:51:29;;;;;;;3.10;2.80;;;13.10;99.90;;;;;;5057502;28;20429;-85
2021/06/23 08:53:56;;;;;;;4.35;2.67;;;13.10;99.90;;;;;;5065357;28;20486;-85
2021/06/23 08:56:23;;;;;;;3.38;2.85;;;13.20;99.90;;;;;;5063136;28;20431;-87
2021/06/23 08:58:50;;;;;;;4.05;2.50;;;13.20;99.90;;;;;;5058580;28;20880;-85
2021/06/23 09:01:17;;;;;;;4.80;2.60;;;13.20;99.90;;;;;;5063817;28;20396;-84
2021/06/23 09:04:11;;;;;;;3.10;2.30;;;13.20;99.90;;;;;;5050537;28;20395;-86
2021/06/23 09:06:51;;;;;;;6.50;5.80;;;13.10;99.90;;;;;;5062322;28;20761;-85
2021/06/23 09:09:23;;;;;;;4.28;3.67;;;13.10;99.90;;;;;;5054184;28;20426;-85
2021/06/23 09:11:52;;;;;;;4.20;3.30;;;13.00;99.90;;;;;;5072702;28;21517;-85
2021/06/23 09:14:20;;;;;;;3.20;2.47;;;13.00;99.90;;;;;;5066969;28;20517;-85
2021/06/23 09:17:20;;;;;;;4.32;2.83;;;13.00;99.90;;;;;;5054095;28;20400;-85
2021/06/23 09:19:49;;;;;;;2.40;2.10;;;12.90;99.90;;;;;;5057705;28;20434;-85
2021/06/23 09:22:47;;;;;;;2.15;1.95;;;12.90;99.90;;;;;;5058367;28;20407;-85
2021/06/23 09:25:13;;;;;;;3.88;2.38;;;13.00;99.90;;;;;;5052487;28;20413;-84
2021/06/23 09:27:55;;;;;;;2.63;2.30;;;13.00;99.90;;;;;;5051551;28;20409;-84
2021/06/23 09:30:43;;;;;;;3.53;2.33;;;13.00;99.90;;;;;;5049030;28;20415;-85
2021/06/23 09:33:15;;;;;;;3.50;2.65;;;13.10;99.90;;;;;;5050039;28;20750;-83
2021/06/23 09:36:04;;;;;;;5.13;3.20;;;13.10;99.90;;;;;;5050845;28;20472;-83
2021/06/23 09:38:43;;;;;;;2.80;2.10;;;13.00;99.90;;;;;;5058250;28;20394;-84
2021/06/23 09:41:30;;;;;;;3.72;2.63;;;13.00;99.90;;;;;;5053029;28;20431;-86
2021/06/23 09:44:07;;;;;;;5.22;2.83;;;12.90;99.90;;;;;;5053642;28;20396;-85
2021/06/23 09:46:40;;;;;;;3.67;2.70;;;12.80;99.90;;;;;;5049799;28;20395;-85
2021/06/23 09:49:16;;;;;;;3.42;2.90;;;12.70;99.90;;;;;;5056340;28;20386;-84
2021/06/23 09:51:55;;;;;;;4.00;3.40;;;12.70;99.90;;;;;;5056540;28;20491;-85
2021/06/23 09:54:30;;;;;;;4.88;4.40;;;12.70;99.90;;;;;;5053807;28;20817;-87
2021/06/23 09:57:03;;;;;;;7.05;4.57;;;12.60;99.90;;;;;;5056552;28;20402;-83
2021/06/23 09:59:34;;;;;;;3.55;2.90;;;12.70;99.90;;;;;;5054266;28;20376;-83
2021/06/23 10:02:03;;;;;;;4.43;2.72;;;12.70;99.90;;;;;;5052736;28;20421;-84
2021/06/23 10:04:35;;;;;;;4.15;3.25;;;12.80;99.90;;;;;;5054045;28;20413;-83
2021/06/23 10:07:03;;;;;;;4.15;3.75;;;12.80;99.90;;;;;;5053607;28;20406;-84
2021/06/23 10:09:32;;;;;;;6.00;2.60;;;12.80;99.90;;;;;;5056625;28;20451;-85
2021/06/23 10:12:09;;;;;;;1.73;1.63;;;12.80;99.90;;;;;;5054551;28;20415;-84
2021/06/23 10:14:47;;;;;;;3.20;2.05;;;12.90;99.90;;;;;;5050988;28;20393;-86
2021/06/23 10:17:14;;;;;;;2.92;1.38;;;12.90;99.90;;;;;;5049540;28;20372;-83
2021/06/23 10:19:42;;;;;;;2.35;1.63;;;13.00;99.90;;;;;;5049998;28;20541;-86
2021/06/23 10:22:10;;;;;;;2.83;1.70;;;13.10;99.90;;;;;;5048888;28;20473;-87
2021/06/23 10:24:37;;;;;;;2.13;1.55;;;13.20;99.90;;;;;;5048950;28;20392;-87
2021/06/23 10:27:10;;;;;;;3.05;1.67;;;13.20;99.90;;;;;;5048948;28;20415;-86
2021/06/23 10:29:40;;;;;;;2.10;1.60;;;13.20;99.90;;;;;;5048950;28;20403;-86
2021/06/23 10:32:09;;;;;;;2.15;1.50;;;13.20;99.90;;;;;;5050061;28;20427;-85
2021/06/23 10:34:36;;;;;;;1.75;1.40;;;13.20;99.90;;;;;;5051514;28;20421;-84
2021/06/23 10:37:03;;;;;;;1.30;1.20;;;13.20;99.90;;;;;;5063351;28;20367;-87
2021/06/23 10:39:34;;;;;;;1.88;1.27;;;13.30;99.90;;;;;;5051262;28;20399;-84
2021/06/23 10:42:04;;;;;;;2.20;1.30;;;13.30;99.90;;;;;;5065314;28;20835;-86
2021/06/23 10:44:36;;;;;;;3.42;1.30;;;13.40;99.90;;;;;;5053850;28;21042;-85
2021/06/23 10:47:07;;;;;;;1.20;1.08;;;13.50;99.90;;;;;;5048157;28;21255;-86
2021/06/23 10:50:01;;;;;;;1.70;1.17;;;13.50;99.90;;;;;;5047785;28;20415;-85
2021/06/23 10:52:33;;;;;;;2.27;1.30;;;13.60;99.90;;;;;;5049681;28;20522;-86
2021/06/23 10:55:02;;;;;;;1.92;1.10;;;13.60;99.90;;;;;;5055104;28;20396;-85
2021/06/23 10:57:41;;;;;;;2.13;1.80;;;13.60;99.90;;;;;;5051499;28;20901;-86
2021/06/23 11:00:11;;;;;;;3.00;1.20;;;13.60;99.90;;;;;;5050610;28;20407;-84
2021/06/23 11:02:41;;;;;;;1.35;0.88;;;13.60;99.90;;;;;;5051058;28;20393;-88
2021/06/23 11:05:09;;;;;;;1.08;0.88;;;13.60;99.90;;;;;;5052762;28;20479;-88
2021/06/23 11:07:45;;;;;;;2.40;0.80;;;13.60;99.90;;;;;;5055384;28;20487;-89
2021/06/23 11:10:15;;;;;;;1.35;0.73;;;13.60;99.90;;;;;;5057611;28;20406;-85
2021/06/23 11:12:59;;;;;;;1.58;0.90;;;13.70;99.90;;;;;;5060342;28;20394;-84
2021/06/23 11:15:37;;;;;;;1.45;0.80;;;13.70;99.90;;;;;;5054527;28;20494;-87
2021/06/23 11:18:24;;;;;;;1.13;0.98;;;13.70;99.90;;;;;;5055084;28;20399;-84
2021/06/23 11:20:58;;;;;;;1.67;0.90;;;13.70;99.90;;;;;;5066827;28;20404;-86
2021/06/23 11:23:51;;;;;;;3.30;0.90;;;13.70;99.90;;;;;;5057087;28;20478;-85
2021/06/23 11:26:21;;;;;;;1.27;0.93;;;13.80;99.90;;;;;;5058877;28;20398;-86
2021/06/23 11:29:13;;;;;;;2.10;1.07;;;13.80;99.90;;;;;;5052069;28;20510;-85
2021/06/23 11:31:58;;;;;;;1.67;1.10;;;13.70;99.90;;;;;;5050243;28;20740;-84
2021/06/23 11:34:38;;;;;;;2.55;0.90;;;13.70;99.90;;;;;;5050747;28;20372;-87
2021/06/23 11:37:06;;;;;;;1.83;1.17;;;13.70;99.90;;;;;;5050545;28;20487;-85
2021/06/23 11:39:34;;;;;;;2.58;1.33;;;13.70;99.90;;;;;;5048876;28;20391;-85
2021/06/23 11:42:01;;;;;;;1.50;1.20;;;13.70;99.90;;;;;;5065682;28;20417;-86
2021/06/23 11:44:30;;;;;;;1.20;1.10;;;13.70;99.90;;;;;;5051659;28;21114;-85
2021/06/23 11:47:06;;;;;;;1.20;1.00;;;13.70;99.90;;;;;;5050134;28;20376;-85
2021/06/23 11:49:38;;;;;;;2.45;1.23;;;13.60;99.90;;;;;;5050650;28;20419;-86
2021/06/23 11:52:07;;;;;;;4.00;1.10;;;13.60;99.90;;;;;;5049695;28;20894;-84
2021/06/23 11:54:34;;;;;;;1.20;1.10;;;13.60;99.90;;;;;;5050055;28;20830;-84
2021/06/23 11:57:01;;;;;;;1.43;1.10;;;13.60;99.90;;;;;;5058135;28;20425;-84
2021/06/23 11:59:28;;;;;;;2.95;1.00;;;13.60;99.90;;;;;;5056520;28;20394;-85
2021/06/23 12:01:55;;;;;;;1.08;0.93;;;13.50;99.90;;;;;;5050173;28;20395;-83
2021/06/23 12:04:22;;;;;;;2.70;1.23;;;13.50;99.90;;;;;;5076226;28;20399;-83
2021/06/23 12:06:56;;;;;;;2.17;1.30;;;13.50;99.90;;;;;;5050418;28;20894;-86
2021/06/23 12:09:23;;;;;;;1.30;1.13;;;13.50;99.90;;;;;;5050413;28;20454;-84
2021/06/23 12:11:50;;;;;;;1.70;1.20;;;13.50;99.90;;;;;;5053142;28;20450;-86
2021/06/23 12:14:17;;;;;;;1.20;1.10;;;13.50;99.90;;;;;;5053766;28;20390;-85
2021/06/23 12:16:44;;;;;;;2.40;1.00;;;13.50;99.90;;;;;;5052306;28;20427;-85
2021/06/23 12:19:12;;;;;;;1.63;0.82;;;13.40;99.90;;;;;;5058856;28;20460;-84
2021/06/23 12:21:39;;;;;;;2.30;0.90;;;13.40;99.90;;;;;;5049267;28;20398;-83
2021/06/23 12:24:07;;;;;;;1.25;0.80;;;13.40;99.90;;;;;;5051533;28;20399;-82
2021/06/23 12:26:34;;;;;;;2.72;0.82;;;13.40;99.90;;;;;;5050907;28;20394;-86
2021/06/23 12:29:02;;;;;;;1.92;0.95;;;13.40;99.90;;;;;;5069339;28;20468;-85
2021/06/23 12:31:30;;;;;;;1.08;0.90;;;13.30;99.90;;;;;;5057492;28;20736;-85
2021/06/23 12:33:57;;;;;;;1.60;0.80;;;13.40;99.90;;;;;;5053841;28;20384;-84
2021/06/23 12:36:24;;;;;;;1.20;0.88;;;13.30;99.90;;;;;;5050238;28;20479;-85
2021/06/23 12:38:50;;;;;;;2.40;1.27;;;13.30;99.90;;;;;;5054320;28;20853;-85
2021/06/23 12:41:17;;;;;;;1.33;1.20;;;13.30;99.90;;;;;;5052700;28;20410;-86
2021/06/23 12:43:44;;;;;;;2.35;1.33;;;13.30;99.90;;;;;;5052059;28;20399;-85
2021/06/23 12:46:11;;;;;;;1.67;1.27;;;13.20;99.90;;;;;;5049032;28;20384;-85
2021/06/23 12:48:38;;;;;;;1.27;1.17;;;13.20;99.90;;;;;;5057877;28;20394;-83
2021/06/23 12:51:07;;;;;;;1.30;0.90;;;13.20;99.90;;;;;;5061711;28;20416;-85
2021/06/23 12:53:34;;;;;;;2.40;1.20;;;13.20;99.90;;;;;;5052521;28;20963;-84
2021/06/23 12:56:01;;;;;;;1.43;1.00;;;13.20;99.90;;;;;;5054779;28;20922;-85
2021/06/23 12:58:28;;;;;;;1.42;1.02;;;13.20;99.90;;;;;;5068535;28;20865;-82
2021/06/23 13:00:55;;;;;;;1.60;1.10;;;13.10;99.90;;;;;;5050504;28;20396;-82
2021/06/23 13:03:22;;;;;;;1.13;0.88;;;13.10;99.90;;;;;;5058402;28;20397;-82
2021/06/23 13:05:49;;;;;;;1.20;1.10;;;13.10;99.90;;;;;;5052284;28;20409;-84
2021/06/23 13:08:16;;;;;;;1.30;0.90;;;13.00;99.90;;;;;;5049124;28;20983;-83
2021/06/23 13:10:44;;;;;;;2.17;1.05;;;12.90;99.90;;;;;;5053998;28;20432;-81
2021/06/23 13:13:11;;;;;;;1.30;1.20;;;12.90;99.90;;;;;;5051958;28;20964;-82
2021/06/23 13:15:38;;;;;;;1.45;1.20;;;12.90;99.90;;;;;;5054739;28;20422;-82